フライト後にぐったり…

LUXURY FLIGHT

03-6423-7371

羽田本店:東京都大田区羽田5-11-1
営業時間:10:00~20:00
定休日:毎週 月曜日
セントレア店:愛知県常滑市セントレア1-1
営業時間:10:00~20:00 年中無休

lv

フライト後にぐったり…

STAFF BLOG

2019/06/26 フライト後にぐったり…

おはようございまーす

 

本日の羽田METARは…

RJTT 252330Z 17006KT 100V220 9999 FEW015 SCT/// 25/21 Q1016 NOSIG

 

こちらは日差しも有り、かなり良い天気です

 

しかし、明日だか明後日は台風とかなんとか・・・・

 

気をつけなければですね!!

 

 

 

さて、本日は毎回毎回のフライトを常に全力フルスロットルで頑張ってくれている

当店認定F/OのTさん。

 

 

いつの日からか、「通常運航」という概念がなくなり、

毎度のフライトで悪天候や燃料、滑走路閉鎖などのありとあらゆるトラブルを想定したシチュエーションと戦いながら、

日々技量と知識を全力で吸収していまーす

 

img_1940

 

普段慣れていない事からか、いつものTさんらしくないレベルでぐったり・・・笑

 

それだけ、本気で頑張ってくれている表れとも取れる瞬間でした

 

Tさん!!

 

この努力は必ずお仕事やプライベートでも活かせる内容と思います。

 

これからも楽しみながら本気でがんばりましょーーーーー

 

いつも、本当に楽しい時間を共有させていただき、ありがとうございます。

 

これからもよろしくお願いいたします。

 

「感謝」

 

 

TOP